createdAt,value
2019-04-05T00:01:15.522Z,9.90
2019-04-05T00:03:45.009Z,9.90
2019-04-05T00:06:15.726Z,9.80
2019-04-05T00:08:45.773Z,9.80
2019-04-05T00:11:15.145Z,9.80
2019-04-05T00:13:44.565Z,9.80
2019-04-05T00:16:13.926Z,9.80
2019-04-05T00:18:43.297Z,9.80
2019-04-05T00:21:12.724Z,9.80
2019-04-05T00:23:42.108Z,9.80
2019-04-05T00:26:11.618Z,9.80
2019-04-05T00:28:40.956Z,9.80
2019-04-05T00:31:10.328Z,9.80
2019-04-05T00:33:39.682Z,9.80
2019-04-05T00:36:09.056Z,9.80
2019-04-05T00:38:41.382Z,9.80
2019-04-05T00:41:10.725Z,9.80
2019-04-05T00:43:40.069Z,9.80
2019-04-05T00:46:09.474Z,9.80
2019-04-05T00:48:38.900Z,9.80
2019-04-05T00:51:11.375Z,9.80
2019-04-05T00:53:40.899Z,9.80
2019-04-05T00:56:10.246Z,9.80
2019-04-05T00:58:39.606Z,9.80
2019-04-05T01:01:08.976Z,9.80
2019-04-05T01:03:38.390Z,9.80
2019-04-05T01:06:07.927Z,9.70
2019-04-05T01:08:38.890Z,9.80
2019-04-05T01:11:08.273Z,9.70
2019-04-05T01:13:38.625Z,9.80
2019-04-05T01:16:14.083Z,9.70
2019-04-05T01:18:43.433Z,9.70
2019-04-05T01:21:16.747Z,9.70
2019-04-05T01:23:47.329Z,9.70
2019-04-05T01:26:18.467Z,9.70
2019-04-05T01:28:48.045Z,9.70
2019-04-05T01:31:17.476Z,9.70
2019-04-05T01:33:46.890Z,9.70
2019-04-05T01:36:16.249Z,9.70
2019-04-05T01:38:45.628Z,9.70
2019-04-05T01:41:15.055Z,9.70
2019-04-05T01:43:44.411Z,9.70
2019-04-05T01:46:14.552Z,9.70
2019-04-05T01:48:43.903Z,9.70
2019-04-05T01:51:13.801Z,9.70
2019-04-05T01:53:43.534Z,9.60
2019-04-05T02:14:58.081Z,6.90
2019-04-05T02:17:27.504Z,7.20
2019-04-05T02:19:56.926Z,7.50
2019-04-05T02:22:26.311Z,7.70
2019-04-05T02:24:55.823Z,8.00
2019-04-05T02:27:25.251Z,8.10
2019-04-05T02:29:54.683Z,8.30
2019-04-05T02:32:24.026Z,8.50
2019-04-05T02:34:53.451Z,8.60
2019-04-05T02:37:24.687Z,8.70
2019-04-05T02:39:54.047Z,8.80
2019-04-05T02:42:23.719Z,8.80
2019-04-05T02:44:54.493Z,8.90
2019-04-05T02:47:24.853Z,8.90
2019-04-05T02:49:55.299Z,9.00
2019-04-05T02:52:26.936Z,9.00
2019-04-05T02:54:57.489Z,9.10
2019-04-05T02:57:28.754Z,9.10
2019-04-05T02:59:58.720Z,9.10
2019-04-05T03:02:28.865Z,9.10
2019-04-05T03:04:58.450Z,9.20
2019-04-05T03:07:28.943Z,9.20
2019-04-05T03:09:59.908Z,9.20
2019-04-05T03:12:30.570Z,9.20
2019-04-05T03:15:03.314Z,9.20
2019-04-05T03:17:36.846Z,9.20
2019-04-05T03:20:08.108Z,9.20
2019-04-05T03:22:39.181Z,9.20
2019-04-05T03:25:09.530Z,9.30
2019-04-05T03:27:40.186Z,9.30
2019-04-05T03:30:09.899Z,9.30
2019-04-05T03:32:39.324Z,9.30
2019-04-05T03:35:08.818Z,9.30
2019-04-05T03:37:38.643Z,9.30
2019-04-05T03:40:09.101Z,9.30
2019-04-05T03:42:39.090Z,9.30
2019-04-05T03:45:09.300Z,9.30
2019-04-05T03:47:38.706Z,9.30
2019-04-05T03:50:08.203Z,9.30
2019-04-05T03:52:37.713Z,9.30
2019-04-05T03:55:07.981Z,9.30
2019-04-05T03:57:37.476Z,9.30
2019-04-05T04:00:07.822Z,9.30
2019-04-05T04:02:37.319Z,9.30
2019-04-05T04:05:07.612Z,9.30
2019-04-05T04:07:37.790Z,9.30
2019-04-05T04:10:11.768Z,9.30
2019-04-05T04:12:41.241Z,9.20
2019-04-05T04:15:14.893Z,9.30
2019-04-05T04:17:45.945Z,9.20
2019-04-05T04:20:32.077Z,9.20
2019-04-05T04:23:01.444Z,9.20
2019-04-05T04:25:31.096Z,9.20
2019-04-05T04:28:00.583Z,9.20
2019-04-05T04:30:30.553Z,9.20
2019-04-05T04:33:01.843Z,9.20
2019-04-05T04:35:31.963Z,9.20
2019-04-05T04:38:02.220Z,9.20
2019-04-05T04:40:33.101Z,9.20
2019-04-05T04:43:03.137Z,9.20
2019-04-05T04:45:34.211Z,9.20
2019-04-05T04:48:04.284Z,9.20
2019-04-05T04:50:34.635Z,9.20
2019-04-05T04:53:04.403Z,9.20
2019-04-05T04:55:35.091Z,9.20
2019-04-05T04:58:05.743Z,9.20
2019-04-05T05:00:36.224Z,9.20
2019-04-05T05:03:05.789Z,9.20
2019-04-05T05:05:37.417Z,9.20
2019-04-05T05:08:06.834Z,9.20
2019-04-05T05:10:36.269Z,9.20
2019-04-05T05:13:06.063Z,9.20
2019-04-05T05:15:35.882Z,9.20
2019-04-05T05:18:05.656Z,9.20
2019-04-05T05:20:35.171Z,9.20
2019-04-05T05:23:05.099Z,9.20
2019-04-05T05:25:34.895Z,9.20
2019-04-05T05:28:04.508Z,9.20
2019-04-05T05:30:34.361Z,9.20
2019-04-05T05:33:04.017Z,9.20
2019-04-05T05:35:33.718Z,9.20
2019-04-05T05:38:03.264Z,9.20
2019-04-05T05:40:35.285Z,9.20
2019-04-05T05:43:04.033Z,9.20
2019-04-05T05:45:34.156Z,9.30
2019-04-05T05:48:04.032Z,9.30
2019-04-05T05:50:33.580Z,9.30
2019-04-05T05:53:03.754Z,9.30
2019-04-05T05:55:33.111Z,9.30
2019-04-05T05:58:02.518Z,9.30
2019-04-05T06:00:31.872Z,9.30
2019-04-05T06:03:01.218Z,9.30
2019-04-05T06:05:30.599Z,9.30
2019-04-05T06:08:01.677Z,9.40
2019-04-05T06:10:31.028Z,9.40
2019-04-05T06:13:00.407Z,9.40
2019-04-05T06:15:29.763Z,9.40
2019-04-05T06:18:04.906Z,9.40
2019-04-05T06:20:31.315Z,9.40
2019-04-05T06:23:00.736Z,9.40
2019-04-05T06:25:30.656Z,9.50
2019-04-05T06:28:00.120Z,9.50
2019-04-05T06:30:29.454Z,9.50
2019-04-05T06:32:58.804Z,9.50
2019-04-05T06:35:28.191Z,9.50
2019-04-05T06:37:57.553Z,9.50
2019-04-05T06:40:39.668Z,9.50
2019-04-05T06:42:58.080Z,9.50
2019-04-05T06:45:27.432Z,9.60
2019-04-05T06:47:56.848Z,9.60
2019-04-05T06:50:26.156Z,9.60
2019-04-05T06:52:55.521Z,9.60
2019-04-05T06:55:24.876Z,9.60
2019-04-05T06:57:54.274Z,9.60
2019-04-05T07:00:29.528Z,9.60
2019-04-05T07:02:59.915Z,9.70
2019-04-05T07:05:29.747Z,9.70
2019-04-05T07:07:59.114Z,9.70
2019-04-05T07:10:28.461Z,9.70
2019-04-05T07:12:57.972Z,9.70
2019-04-05T07:15:27.418Z,9.70
2019-04-05T07:17:56.831Z,9.70
2019-04-05T07:20:26.213Z,9.80
2019-04-05T07:22:55.566Z,9.80
2019-04-05T07:25:24.916Z,9.80
2019-04-05T07:27:56.054Z,9.80
2019-04-05T07:30:25.474Z,9.80
2019-04-05T07:32:54.838Z,9.80
2019-04-05T07:35:33.394Z,9.90
2019-04-05T07:37:55.281Z,9.90
2019-04-05T07:40:24.630Z,9.90
2019-04-05T07:42:53.996Z,10.00
2019-04-05T07:45:23.421Z,10.00
2019-04-05T07:47:52.781Z,10.00
2019-04-05T07:50:22.565Z,10.10
2019-04-05T07:52:51.932Z,10.10
2019-04-05T07:55:21.288Z,10.10
2019-04-05T07:57:50.692Z,10.10
2019-04-05T08:00:49.131Z,10.10
2019-04-05T08:03:18.781Z,10.10
2019-04-05T08:05:50.460Z,10.10
2019-04-05T08:08:33.495Z,10.20
2019-04-05T08:11:03.707Z,10.20
2019-04-05T08:13:36.405Z,10.20
2019-04-05T08:16:05.990Z,10.30
2019-04-05T08:18:35.346Z,10.30
2019-04-05T08:21:04.711Z,10.30
2019-04-05T08:23:34.739Z,10.40
2019-04-05T08:26:04.096Z,10.40
2019-04-05T08:28:33.442Z,10.40
2019-04-05T08:31:02.915Z,10.40
2019-04-05T08:33:32.506Z,10.40
2019-04-05T08:36:02.429Z,10.50
2019-04-05T08:38:31.841Z,10.50
2019-04-05T08:41:01.190Z,10.50
2019-04-05T08:43:30.542Z,10.50
2019-04-05T08:46:00.335Z,10.60
2019-04-05T08:48:29.779Z,10.60
2019-04-05T08:50:59.147Z,10.60
2019-04-05T08:53:28.514Z,10.70
2019-04-05T08:55:57.865Z,10.70
2019-04-05T08:58:33.155Z,10.70
2019-04-05T09:00:58.341Z,10.70
2019-04-05T09:03:28.366Z,10.70
2019-04-05T09:05:57.709Z,10.70
2019-04-05T09:08:27.605Z,10.70
2019-04-05T09:10:56.943Z,10.80
2019-04-05T09:13:26.300Z,10.80
2019-04-05T09:15:55.696Z,10.80
2019-04-05T09:18:25.045Z,10.80
2019-04-05T09:20:54.407Z,10.80
2019-04-05T09:23:23.793Z,10.90
2019-04-05T09:25:53.155Z,10.90
2019-04-05T09:28:22.508Z,10.90
2019-04-05T09:30:52.609Z,10.90
2019-04-05T09:33:22.270Z,10.90
2019-04-05T09:35:52.304Z,10.90
2019-04-05T09:38:21.685Z,11.00
2019-04-05T09:40:51.046Z,11.00
2019-04-05T09:43:20.413Z,11.00
2019-04-05T09:45:49.784Z,11.10
2019-04-05T09:48:19.150Z,11.10
2019-04-05T09:50:48.508Z,11.10
2019-04-05T09:53:17.928Z,11.10
2019-04-05T09:56:11.451Z,11.10
2019-04-05T09:58:20.058Z,11.10
2019-04-05T10:00:49.481Z,11.10
2019-04-05T10:03:18.835Z,11.10
2019-04-05T10:05:48.881Z,11.10
2019-04-05T10:08:18.251Z,11.10
2019-04-05T10:10:48.267Z,11.10
2019-04-05T10:13:17.638Z,11.10
2019-04-05T10:15:47.412Z,11.20
2019-04-05T10:18:16.785Z,11.20
2019-04-05T10:20:46.156Z,11.20
2019-04-05T10:23:15.528Z,11.20
2019-04-05T10:25:44.905Z,11.20
2019-04-05T10:28:14.357Z,11.30
2019-04-05T10:30:43.742Z,11.30
2019-04-05T10:33:13.106Z,11.30
2019-04-05T10:35:43.298Z,11.30
2019-04-05T10:38:12.724Z,11.40
2019-04-05T10:40:47.601Z,11.40
2019-04-05T10:43:16.925Z,11.40
2019-04-05T10:45:46.732Z,11.40
2019-04-05T10:48:16.171Z,11.30
2019-04-05T10:50:45.535Z,11.40
2019-04-05T10:53:15.669Z,11.40
2019-04-05T10:55:45.029Z,11.40
2019-04-05T10:58:14.399Z,11.40
2019-04-05T11:00:43.794Z,11.40
2019-04-05T11:03:13.158Z,11.40
2019-04-05T11:05:45.477Z,11.40
2019-04-05T11:08:14.851Z,11.40
2019-04-05T11:10:44.284Z,11.40
2019-04-05T11:13:13.636Z,11.40
2019-04-05T11:15:43.678Z,11.40
2019-04-05T11:18:13.039Z,11.40
2019-04-05T11:20:44.136Z,11.40
2019-04-05T11:23:13.515Z,11.40
2019-04-05T11:25:43.051Z,11.40
2019-04-05T11:28:12.401Z,11.40
2019-04-05T11:30:47.173Z,11.50
2019-04-05T11:33:19.495Z,11.40
2019-04-05T11:35:47.818Z,11.50
2019-04-05T11:38:18.626Z,11.50
2019-04-05T11:40:48.934Z,11.50
2019-04-05T11:43:21.003Z,11.50
2019-04-05T11:45:52.076Z,11.50
2019-04-05T11:48:21.428Z,11.50
2019-04-05T11:50:52.400Z,11.50
2019-04-05T11:53:22.214Z,11.50
2019-04-05T11:55:51.608Z,11.50
2019-04-05T11:58:20.958Z,11.50
2019-04-05T12:01:10.274Z,11.60
2019-04-05T12:03:39.995Z,11.50
2019-04-05T12:06:09.355Z,11.60
2019-04-05T12:08:38.751Z,11.60
2019-04-05T12:11:08.138Z,11.60
2019-04-05T12:13:37.475Z,11.60
2019-04-05T12:16:10.183Z,11.60
2019-04-05T12:18:38.090Z,11.60
2019-04-05T12:21:07.567Z,11.70
2019-04-05T12:23:37.335Z,11.70
2019-04-05T12:26:06.704Z,11.70
2019-04-05T12:28:36.083Z,11.70
2019-04-05T12:31:06.357Z,11.70
2019-04-05T12:33:35.780Z,11.70
2019-04-05T12:36:05.504Z,11.70
2019-04-05T12:38:34.903Z,11.70
2019-04-05T12:41:06.044Z,11.70
2019-04-05T12:43:44.781Z,11.70
2019-04-05T12:46:15.926Z,11.70
2019-04-05T12:48:46.498Z,11.70
2019-04-05T12:51:16.351Z,11.70
2019-04-05T12:53:45.923Z,11.70
2019-04-05T12:56:15.275Z,11.80
2019-04-05T12:58:44.642Z,11.80
2019-04-05T13:01:14.035Z,11.80
2019-04-05T13:03:43.400Z,11.80
2019-04-05T13:06:12.764Z,11.80
2019-04-05T13:08:42.670Z,11.80
2019-04-05T13:11:12.061Z,11.80
2019-04-05T13:13:41.403Z,11.80
2019-04-05T13:16:11.015Z,11.70
2019-04-05T13:18:40.396Z,11.70
2019-04-05T13:21:15.142Z,11.70
2019-04-05T13:23:40.874Z,11.70
2019-04-05T13:26:12.284Z,11.70
2019-04-05T13:28:41.311Z,11.70
2019-04-05T13:31:11.474Z,11.70
2019-04-05T13:33:40.853Z,11.70
2019-04-05T13:36:10.196Z,11.70
2019-04-05T13:38:39.647Z,11.70
2019-04-05T13:41:09.004Z,11.70
2019-04-05T13:43:38.701Z,11.70
2019-04-05T13:46:08.109Z,11.70
2019-04-05T13:48:40.041Z,11.70
2019-04-05T13:51:10.372Z,11.70
2019-04-05T13:53:40.555Z,11.70
2019-04-05T13:56:11.021Z,11.70
2019-04-05T13:58:40.527Z,11.70
2019-04-05T14:01:09.919Z,11.70
2019-04-05T14:03:39.277Z,11.60
2019-04-05T14:06:10.689Z,11.60
2019-04-05T14:08:41.784Z,11.60
2019-04-05T14:11:13.548Z,11.60
2019-04-05T14:13:43.135Z,11.60
2019-04-05T14:16:13.102Z,11.60
2019-04-05T14:18:49.370Z,11.70
2019-04-05T14:21:13.816Z,11.70
2019-04-05T14:23:43.204Z,11.70
2019-04-05T14:26:12.590Z,11.70
2019-04-05T14:28:41.946Z,11.70
2019-04-05T14:31:11.341Z,11.70
2019-04-05T14:33:40.708Z,11.70
2019-04-05T14:36:10.084Z,11.70
2019-04-05T14:38:39.575Z,11.70
2019-04-05T14:41:08.933Z,11.70
2019-04-05T14:43:38.295Z,11.70
2019-04-05T14:46:08.223Z,11.70
2019-04-05T14:48:40.363Z,11.70
2019-04-05T14:51:09.719Z,11.70
2019-04-05T14:53:39.109Z,11.70
2019-04-05T14:56:08.477Z,11.70
2019-04-05T14:58:37.845Z,11.70
2019-04-05T15:01:11.075Z,11.70
2019-04-05T15:03:40.435Z,11.70
2019-04-05T15:06:09.795Z,11.70
2019-04-05T15:08:39.229Z,11.70
2019-04-05T15:11:10.878Z,11.70
2019-04-05T15:13:39.676Z,11.70
2019-04-05T15:16:09.086Z,11.70
2019-04-05T15:18:38.472Z,11.70
2019-04-05T15:21:07.888Z,11.70
2019-04-05T15:23:41.171Z,11.70
2019-04-05T15:26:09.811Z,11.70
2019-04-05T15:28:39.228Z,11.70
2019-04-05T15:31:08.892Z,11.70
2019-04-05T15:33:38.254Z,11.70
2019-04-05T15:36:07.617Z,11.70
2019-04-05T15:38:40.184Z,11.70
2019-04-05T15:41:09.534Z,11.70
2019-04-05T15:43:38.905Z,11.70
2019-04-05T15:46:08.615Z,11.70
2019-04-05T15:48:38.220Z,11.60
2019-04-05T15:51:07.588Z,11.60
2019-04-05T15:53:37.009Z,11.60
2019-04-05T15:56:06.460Z,11.70
2019-04-05T15:58:36.114Z,11.70
2019-04-05T16:01:05.609Z,11.70
2019-04-05T16:03:36.936Z,11.70
2019-04-05T16:06:06.184Z,11.60
2019-04-05T16:08:35.651Z,11.60
2019-04-05T16:11:05.152Z,11.60
2019-04-05T16:13:34.541Z,11.60
2019-04-05T16:16:04.041Z,11.60
2019-04-05T16:18:33.406Z,11.60
2019-04-05T16:21:02.765Z,11.60
2019-04-05T16:23:32.874Z,11.60
2019-04-05T16:26:02.230Z,11.60
2019-04-05T16:28:31.581Z,11.60
2019-04-05T16:31:01.007Z,11.50
2019-04-05T16:33:30.358Z,11.60
2019-04-05T16:35:59.720Z,11.60
2019-04-05T16:38:29.102Z,11.60
2019-04-05T16:40:58.454Z,11.50
2019-04-05T16:43:27.806Z,11.50
2019-04-05T16:45:57.894Z,11.50
2019-04-05T16:48:27.250Z,11.50
2019-04-05T16:50:57.615Z,11.50
2019-04-05T16:53:26.957Z,11.50
2019-04-05T16:55:56.322Z,11.50
2019-04-05T16:58:25.664Z,11.50
2019-04-05T17:00:55.097Z,11.50
2019-04-05T17:03:24.479Z,11.50
2019-04-05T17:05:53.843Z,11.40
2019-04-05T17:08:23.645Z,11.40
2019-04-05T17:10:53.014Z,11.40
2019-04-05T17:13:22.378Z,11.50
2019-04-05T17:15:51.766Z,11.50
2019-04-05T17:18:21.145Z,11.50
2019-04-05T17:20:50.500Z,11.50
2019-04-05T17:23:19.899Z,11.50
2019-04-05T17:25:49.263Z,11.50
2019-04-05T17:28:18.639Z,11.50
2019-04-05T17:30:48.974Z,11.40
2019-04-05T17:33:18.340Z,11.40
2019-04-05T17:35:47.706Z,11.40
2019-04-05T17:38:17.320Z,11.40
2019-04-05T17:40:46.694Z,11.40
2019-04-05T17:43:16.043Z,11.40
2019-04-05T17:45:51.603Z,11.40
2019-04-05T17:48:20.954Z,11.40
2019-04-05T17:50:50.325Z,11.40
2019-04-05T17:53:20.146Z,11.40
2019-04-05T17:55:49.595Z,11.40
2019-04-05T17:58:19.623Z,11.40
2019-04-05T18:00:49.073Z,11.40
2019-04-05T18:03:18.416Z,11.40
2019-04-05T18:05:47.781Z,11.40
2019-04-05T18:08:17.180Z,11.40
2019-04-05T18:10:49.274Z,11.40
2019-04-05T18:13:18.631Z,11.40
2019-04-05T18:15:52.709Z,11.40
2019-04-05T18:18:19.117Z,11.40
2019-04-05T18:20:48.533Z,11.40
2019-04-05T18:23:25.083Z,11.40
2019-04-05T18:25:49.425Z,11.40
2019-04-05T18:28:18.791Z,11.40
2019-04-05T18:30:48.749Z,11.40
2019-04-05T18:33:18.109Z,11.40
2019-04-05T18:35:47.468Z,11.40
2019-04-05T18:38:16.891Z,11.40
2019-04-05T18:40:46.328Z,11.40
2019-04-05T18:43:15.682Z,11.40
2019-04-05T18:45:45.496Z,11.40
2019-04-05T18:48:20.882Z,11.40
2019-04-05T18:50:50.238Z,11.40
2019-04-05T18:53:19.707Z,11.40
2019-04-05T18:55:51.062Z,11.40
2019-04-05T18:58:20.429Z,11.40
2019-04-05T19:00:50.307Z,11.40
2019-04-05T19:03:19.677Z,11.40
2019-04-05T19:05:49.036Z,11.40
2019-04-05T19:08:18.417Z,11.40
2019-04-05T19:10:47.800Z,11.40
2019-04-05T19:13:19.872Z,11.40
2019-04-05T19:15:49.289Z,11.40
2019-04-05T19:18:18.768Z,11.40
2019-04-05T19:20:48.081Z,11.50
2019-04-05T19:23:17.489Z,11.50
2019-04-05T19:25:46.859Z,11.50
2019-04-05T19:28:16.214Z,11.50
2019-04-05T19:48:31.644Z,11.50
2019-04-05T19:50:55.183Z,11.40
2019-04-05T19:53:24.672Z,11.40
2019-04-05T19:55:54.039Z,11.40
2019-04-05T19:58:26.598Z,11.40
2019-04-05T20:00:56.022Z,11.40
2019-04-05T20:03:25.941Z,11.40
2019-04-05T20:05:55.306Z,11.40
2019-04-05T20:08:26.095Z,11.40
2019-04-05T20:10:55.444Z,11.50
2019-04-05T20:13:24.821Z,11.50
2019-04-05T20:15:54.188Z,11.40
2019-04-05T20:18:23.554Z,11.40
2019-04-05T20:20:52.929Z,11.40
2019-04-05T20:23:22.340Z,11.40
2019-04-05T20:25:52.264Z,11.40
2019-04-05T20:28:21.635Z,11.50
2019-04-05T20:30:51.061Z,11.40
2019-04-05T20:33:20.429Z,11.50
2019-04-05T20:35:49.915Z,11.50
2019-04-05T20:38:19.343Z,11.50
2019-04-05T20:40:48.672Z,11.50
2019-04-05T20:43:18.029Z,11.50
2019-04-05T20:45:47.423Z,11.50
2019-04-05T20:48:17.885Z,11.50
2019-04-05T20:50:47.256Z,11.50
2019-04-05T20:53:17.057Z,11.50
2019-04-05T20:55:46.490Z,11.50
2019-04-05T20:58:15.848Z,11.50
2019-04-05T21:00:45.587Z,11.50
2019-04-05T21:03:14.967Z,11.50
2019-04-05T21:05:47.341Z,11.50
2019-04-05T21:08:16.741Z,11.50
2019-04-05T21:10:46.126Z,11.50
2019-04-05T21:13:15.530Z,11.50
2019-04-05T21:15:45.599Z,11.40
2019-04-05T21:18:14.966Z,11.40
2019-04-05T21:20:44.506Z,11.40
2019-04-05T21:23:13.900Z,11.40
2019-04-05T21:25:43.493Z,11.40
2019-04-05T21:28:12.862Z,11.40
2019-04-05T21:30:45.205Z,11.40
2019-04-05T21:33:14.562Z,11.40
2019-04-05T21:35:46.047Z,11.50
2019-04-05T21:38:15.081Z,11.50
2019-04-05T21:40:44.440Z,11.50
2019-04-05T21:43:16.492Z,11.50
2019-04-05T21:45:45.899Z,11.40
2019-04-05T21:48:15.367Z,11.40
2019-04-05T21:50:45.639Z,11.50
2019-04-05T21:53:15.026Z,11.50
2019-04-05T21:55:44.389Z,11.50
2019-04-05T21:58:13.748Z,11.50
2019-04-05T22:00:51.465Z,11.50
2019-04-05T22:03:20.829Z,11.50
2019-04-05T22:05:50.222Z,11.50
2019-04-05T22:08:19.673Z,11.50
2019-04-05T22:10:48.983Z,11.50
2019-04-05T22:13:18.340Z,11.50
2019-04-05T22:15:47.742Z,11.50
2019-04-05T22:18:17.098Z,11.50
2019-04-05T22:20:46.471Z,11.50
2019-04-05T22:23:16.259Z,11.50
2019-04-05T22:25:45.632Z,11.50
2019-04-05T22:28:14.986Z,11.50
2019-04-05T22:30:44.376Z,11.50
2019-04-05T22:33:13.751Z,11.50
2019-04-05T22:35:43.115Z,11.50
2019-04-05T22:38:12.486Z,11.50
2019-04-05T22:40:41.871Z,11.50
2019-04-05T22:43:11.239Z,11.50
2019-04-05T22:45:40.657Z,11.50
2019-04-05T22:48:10.258Z,11.60
2019-04-05T22:50:39.618Z,11.60
2019-04-05T22:53:09.012Z,11.50
2019-04-05T22:55:38.370Z,11.60
2019-04-05T22:58:07.709Z,11.50
2019-04-05T23:00:37.114Z,11.60
2019-04-05T23:03:06.502Z,11.60
2019-04-05T23:05:36.794Z,11.60
2019-04-05T23:08:06.846Z,11.60
2019-04-05T23:10:36.217Z,11.60
2019-04-05T23:13:05.635Z,11.60
2019-04-05T23:15:35.027Z,11.60
2019-04-05T23:18:04.383Z,11.60
2019-04-05T23:20:33.744Z,11.50
2019-04-05T23:23:03.151Z,11.60
2019-04-05T23:25:32.489Z,11.60
2019-04-05T23:28:01.854Z,11.60
2019-04-05T23:30:33.006Z,11.60
2019-04-05T23:33:02.336Z,11.60
2019-04-05T23:35:31.722Z,11.60
2019-04-05T23:38:01.113Z,11.60
2019-04-05T23:40:30.467Z,11.60
2019-04-05T23:42:59.824Z,11.60
2019-04-05T23:45:29.205Z,11.60
2019-04-05T23:47:58.559Z,11.60
2019-04-05T23:50:27.935Z,11.60
2019-04-05T23:52:57.363Z,11.60
2019-04-05T23:55:33.113Z,11.60
2019-04-05T23:57:59.622Z,11.60
